Time;durP1;ratioP1;P1;durP2;ratioP2;P2;SDS_P1;SDS_P2;PMS_P1;PMS_P2;Temp;Humidity;BMP_temperature;BMP_pressure;BME280_temperature;BME280_humidity;BME280_pressure;Samples;Min_cycle;Max_cycle;Signal;HPM_P1;HPM_P2
2022/07/29 00:02:08;;;;;;;8.85;5.07;;;;;;;17.63;100.00;96048.19;5023665;28;20029;-75
2022/07/29 00:04:35;;;;;;;7.95;4.82;;;;;;;17.57;100.00;96038.38;5038838;28;20665;-75
2022/07/29 00:07:01;;;;;;;8.55;5.00;;;;;;;17.70;100.00;96040.19;5032935;28;20101;-75
2022/07/29 00:09:27;;;;;;;6.97;4.65;;;;;;;17.78;100.00;96045.34;5052259;28;20051;-75
2022/07/29 00:11:54;;;;;;;9.15;5.43;;;;;;;17.83;100.00;96042.84;5033976;28;20025;-75
2022/07/29 00:14:20;;;;;;;6.38;4.70;;;;;;;17.88;100.00;96051.03;5048572;28;20144;-75
2022/07/29 00:16:46;;;;;;;8.70;4.72;;;;;;;17.94;100.00;96050.19;5044531;28;20462;-75
2022/07/29 00:19:12;;;;;;;7.70;4.63;;;;;;;18.00;100.00;96046.66;5034185;28;20035;-75
2022/07/29 00:21:37;;;;;;;5.43;4.40;;;;;;;17.98;100.00;96032.78;5036095;28;20041;-76
2022/07/29 00:24:03;;;;;;;6.25;4.55;;;;;;;17.93;100.00;96037.09;5028378;28;20020;-75
2022/07/29 00:26:31;;;;;;;7.50;4.70;;;;;;;17.88;100.00;96032.41;5053848;28;20694;-76
2022/07/29 00:28:58;;;;;;;6.80;4.47;;;;;;;17.83;100.00;96029.53;5048435;28;20482;-75
2022/07/29 00:31:24;;;;;;;7.80;4.47;;;;;;;17.87;100.00;96038.72;5025511;28;20033;-75
2022/07/29 00:33:50;;;;;;;6.32;4.20;;;;;;;17.81;100.00;96037.75;5054283;28;20116;-75
2022/07/29 00:36:15;;;;;;;6.45;4.50;;;;;;;17.83;100.00;96033.00;5055337;28;20509;-75
2022/07/29 00:38:44;;;;;;;7.35;4.20;;;;;;;17.83;100.00;96037.53;5048598;28;20041;-75
2022/07/29 00:41:12;;;;;;;8.10;4.53;;;;;;;17.83;100.00;96040.19;5028301;28;20020;-75
2022/07/29 00:43:37;;;;;;;7.70;4.57;;;;;;;17.76;100.00;96040.19;5032147;28;20060;-75
2022/07/29 00:46:03;;;;;;;6.07;4.28;;;;;;;17.82;100.00;96047.34;5035967;28;20061;-76
2022/07/29 00:48:29;;;;;;;7.40;4.00;;;;;;;17.81;100.00;96048.38;5042819;28;20424;-75
2022/07/29 00:50:58;;;;;;;6.05;3.90;;;;;;;17.70;100.00;96048.16;5056907;28;20099;-75
2022/07/29 00:53:24;;;;;;;6.47;3.70;;;;;;;17.64;100.00;96044.50;5053968;28;20705;-75
2022/07/29 00:55:50;;;;;;;7.15;4.60;;;;;;;17.70;100.00;96048.16;5046044;28;20071;-75
2022/07/29 00:58:16;;;;;;;6.50;4.57;;;;;;;17.64;100.00;96052.50;5054494;28;20052;-75
2022/07/29 01:00:42;;;;;;;6.53;4.63;;;;;;;17.64;100.00;96055.16;5021526;28;20459;-75
2022/07/29 01:03:08;;;;;;;7.35;5.25;;;;;;;17.33;100.00;96058.44;5054501;28;20028;-75
2022/07/29 01:05:35;;;;;;;6.68;5.03;;;;;;;17.41;100.00;96050.28;5031560;28;20127;-76
2022/07/29 01:08:01;;;;;;;7.15;4.80;;;;;;;17.42;100.00;96049.25;5028898;28;20024;-75
2022/07/29 01:10:28;;;;;;;8.13;4.95;;;;;;;17.35;100.00;96043.13;5013161;28;20036;-75
2022/07/29 01:12:57;;;;;;;7.63;4.55;;;;;;;17.40;100.00;96048.63;5043366;28;20041;-75
2022/07/29 01:15:23;;;;;;;6.65;5.05;;;;;;;17.38;100.00;96048.84;5021623;28;20656;-76
2022/07/29 01:18:03;;;;;;;7.03;5.18;;;;;;;17.35;100.00;96043.94;5050164;28;20037;-75
2022/07/29 01:21:00;;;;;;;7.28;4.70;;;;;;;17.34;100.00;96049.47;5053730;28;20048;-75
2022/07/29 01:23:53;;;;;;;6.40;4.80;;;;;;;17.26;100.00;96053.13;5041696;28;20036;-75
2022/07/29 01:26:34;;;;;;;;;;;;;;;17.20;100.00;96054.78;5058232;28;20036;-75
2022/07/29 01:29:17;;;;;;;6.70;4.40;;;;;;;17.11;100.00;96053.34;5042976;28;19913;-75
2022/07/29 01:32:03;;;;;;;8.05;5.50;;;;;;;17.19;100.00;96047.00;5058436;28;20500;-75
2022/07/29 01:35:01;;;;;;;9.93;5.35;;;;;;;17.02;100.00;96043.94;5055180;28;20040;-75
2022/07/29 01:37:30;;;;;;;6.55;4.55;;;;;;;17.17;100.00;96052.53;5026458;28;20569;-75
2022/07/29 01:39:58;;;;;;;9.18;4.90;;;;;;;17.14;100.00;96054.78;5041514;28;20032;-75
2022/07/29 01:42:44;;;;;;;7.93;5.35;;;;;;;17.04;100.00;96041.91;5031244;28;20024;-75
2022/07/29 01:45:41;;;;;;;6.93;5.43;;;;;;;16.97;100.00;96035.78;5054674;28;20518;-75
2022/07/29 01:48:34;;;;;;;9.48;5.20;;;;;;;16.99;100.00;96038.22;5040395;28;20041;-76
2022/07/29 01:51:35;;;;;;;7.43;4.93;;;;;;;17.08;100.00;96037.81;5024374;28;20401;-75
2022/07/29 01:54:12;;;;;;;6.53;5.05;;;;;;;17.08;100.00;96037.00;5046596;28;20049;-75
2022/07/29 01:56:39;;;;;;;6.97;5.13;;;;;;;17.06;100.00;96034.53;5050344;28;20033;-75
2022/07/29 01:59:06;;;;;;;7.05;5.30;;;;;;;17.09;100.00;96031.47;5036984;28;20013;-75
2022/07/29 02:01:34;;;;;;;8.60;5.75;;;;;;;17.16;100.00;96037.59;5049898;28;20067;-75
2022/07/29 02:04:05;;;;;;;7.15;5.00;;;;;;;17.22;100.00;96030.66;5033449;28;20106;-75
2022/07/29 02:06:33;;;;;;;7.38;5.32;;;;;;;17.28;100.00;96024.53;5032479;28;20517;-75
2022/07/29 02:09:00;;;;;;;7.55;4.82;;;;;;;17.17;100.00;96025.16;5051470;28;20079;-75
2022/07/29 02:11:26;;;;;;;8.15;5.25;;;;;;;17.10;100.00;96025.16;5023066;28;20040;-75
2022/07/29 02:13:54;;;;;;;7.07;4.82;;;;;;;17.21;100.00;96018.41;5039218;28;20045;-75
2022/07/29 02:16:22;;;;;;;7.25;5.05;;;;;;;17.18;100.00;96029.44;5036643;28;20460;-76
2022/07/29 02:18:50;;;;;;;7.45;4.97;;;;;;;17.28;100.00;96015.75;5048268;28;20021;-75
2022/07/29 02:21:21;;;;;;;9.20;4.97;;;;;;;17.32;100.00;96025.75;5049082;28;20036;-75
2022/07/29 02:23:49;;;;;;;9.00;5.15;;;;;;;17.28;100.00;96037.00;5050888;28;20028;-75
2022/07/29 02:26:16;;;;;;;8.75;5.15;;;;;;;17.28;100.00;96031.69;5038410;28;20037;-75
2022/07/29 02:28:43;;;;;;;10.48;4.70;;;;;;;17.29;100.00;96028.00;5060622;28;20028;-75
2022/07/29 02:31:10;;;;;;;8.32;5.20;;;;;;;17.25;100.00;96034.75;5049353;28;20033;-75
2022/07/29 02:33:38;;;;;;;7.18;5.32;;;;;;;17.26;100.00;96033.72;5038953;28;20036;-74
2022/07/29 02:36:04;;;;;;;7.60;5.00;;;;;;;17.32;100.00;96024.94;5020745;28;20091;-74
2022/07/29 02:41:47;;;;;;;8.60;5.32;;;;;;;17.36;100.00;96031.47;5044595;28;20478;-75
2022/07/29 02:44:15;;;;;;;6.90;4.57;;;;;;;17.41;100.00;96027.16;5042428;28;20029;-75
2022/07/29 02:47:02;;;;;;;7.20;5.10;;;;;;;17.43;100.00;96037.56;5036071;28;20101;-75
2022/07/29 02:49:32;;;;;;;7.22;5.00;;;;;;;17.34;100.00;96029.03;5038320;28;20037;-75
2022/07/29 02:52:03;;;;;;;9.30;5.13;;;;;;;17.17;100.00;96038.44;5040248;28;20028;-75
2022/07/29 02:54:32;;;;;;;8.02;5.15;;;;;;;17.18;100.00;96034.75;5041468;28;20029;-75
2022/07/29 02:57:03;;;;;;;7.57;4.95;;;;;;;17.16;100.00;96034.94;5050609;28;20028;-75
2022/07/29 02:59:33;;;;;;;8.77;5.72;;;;;;;17.12;100.00;96041.69;5059676;28;20128;-75
2022/07/29 03:02:01;;;;;;;7.57;5.43;;;;;;;17.14;100.00;96042.31;5043693;28;20033;-75
2022/07/29 03:04:29;;;;;;;9.90;5.32;;;;;;;17.06;100.00;96039.84;5041022;28;20032;-75
2022/07/29 03:06:57;;;;;;;9.80;5.90;;;;;;;16.95;100.00;96032.50;5037850;28;20044;-75
2022/07/29 03:09:25;;;;;;;8.48;5.90;;;;;;;16.87;100.00;96046.00;5052838;28;20083;-75
2022/07/29 03:11:53;;;;;;;8.25;5.93;;;;;;;16.72;100.00;96044.28;5044244;28;20040;-76
2022/07/29 03:14:20;;;;;;;7.95;6.30;;;;;;;16.79;100.00;96039.03;5020532;28;20021;-75
2022/07/29 03:16:46;;;;;;;8.00;5.90;;;;;;;16.80;100.00;96039.84;5045185;28;20039;-75
2022/07/29 03:19:13;;;;;;;8.80;6.22;;;;;;;16.77;100.00;96037.59;5038976;28;20145;-75
2022/07/29 03:21:39;;;;;;;9.93;6.10;;;;;;;16.74;100.00;96038.78;5051415;28;20044;-75
2022/07/29 03:24:04;;;;;;;7.18;6.03;;;;;;;16.73;100.00;96037.97;5047060;28;20021;-75
2022/07/29 03:26:30;;;;;;;7.28;5.38;;;;;;;16.72;100.00;96041.63;5050814;28;20494;-75
2022/07/29 03:28:56;;;;;;;7.53;5.72;;;;;;;16.67;100.00;96040.63;5052602;28;20024;-75
2022/07/29 03:31:21;;;;;;;15.70;11.38;;;;;;;16.68;100.00;96035.09;5023624;28;20660;-75
2022/07/29 03:33:47;;;;;;;22.58;19.67;;;;;;;16.65;100.00;96035.50;5045974;28;20402;-75
2022/07/29 03:36:13;;;;;;;10.75;7.80;;;;;;;16.62;100.00;96033.25;5050576;28;20067;-75
2022/07/29 03:38:42;;;;;;;8.30;5.75;;;;;;;16.60;100.00;96029.16;5063508;28;20064;-75
2022/07/29 03:41:11;;;;;;;9.05;6.03;;;;;;;16.52;100.00;96024.84;5044048;28;20029;-75
2022/07/29 03:43:40;;;;;;;7.55;5.95;;;;;;;16.43;100.00;96026.06;5054097;28;20032;-74
2022/07/29 03:46:08;;;;;;;8.80;5.68;;;;;;;16.26;100.00;96034.41;5030522;28;20175;-76
2022/07/29 03:48:38;;;;;;;8.25;6.10;;;;;;;16.19;100.00;96035.38;5047000;28;20025;-75
2022/07/29 03:51:04;;;;;;;10.98;6.78;;;;;;;16.26;100.00;96034.41;5026270;28;20860;-75
2022/07/29 03:53:30;;;;;;;7.55;6.35;;;;;;;16.42;100.00;96043.00;5053118;28;20063;-75
2022/07/29 03:56:00;;;;;;;8.77;6.47;;;;;;;16.47;100.00;96044.06;5046776;28;20036;-75
2022/07/29 03:58:27;;;;;;;10.88;6.97;;;;;;;16.44;100.00;96040.97;5055022;28;20040;-75
2022/07/29 04:00:54;;;;;;;10.02;6.57;;;;;;;16.48;100.00;96044.88;5046720;28;20044;-75
2022/07/29 04:03:21;;;;;;;8.95;6.22;;;;;;;16.47;100.00;96038.75;5027455;28;20115;-75
2022/07/29 04:06:01;;;;;;;10.18;6.30;;;;;;;16.52;100.00;96039.97;5041995;28;20026;-75
2022/07/29 04:08:27;;;;;;;7.97;6.45;;;;;;;16.61;100.00;96034.28;5031078;28;20040;-75
2022/07/29 04:10:52;;;;;;;10.15;6.57;;;;;;;16.64;100.00;96041.84;5047254;28;20031;-76
2022/07/29 04:13:20;;;;;;;10.45;6.03;;;;;;;16.69;100.00;96043.88;5046336;28;20083;-75
2022/07/29 04:15:46;;;;;;;17.42;15.35;;;;;;;16.66;100.00;96039.78;5043195;28;20033;-75
2022/07/29 04:18:11;;;;;;;13.23;11.32;;;;;;;16.57;100.00;96046.31;5032477;28;20098;-75
2022/07/29 04:20:38;;;;;;;7.93;6.28;;;;;;;16.59;100.00;96046.09;5042226;28;20148;-75
2022/07/29 04:23:04;;;;;;;7.97;6.05;;;;;;;16.67;100.00;96044.09;5053479;28;20029;-75
2022/07/29 04:25:29;;;;;;;7.20;6.28;;;;;;;16.75;100.00;96044.94;5029596;28;20110;-75
2022/07/29 04:28:01;;;;;;;7.43;6.00;;;;;;;16.56;100.00;96044.66;5054774;28;20037;-75
2022/07/29 04:30:27;;;;;;;8.30;6.38;;;;;;;16.62;100.00;96048.38;5036446;28;20044;-75
2022/07/29 04:32:53;;;;;;;9.00;6.13;;;;;;;16.66;100.00;96050.41;5048689;28;20082;-75
2022/07/29 04:35:19;;;;;;;7.28;5.25;;;;;;;16.76;100.00;96049.22;5045242;28;20032;-75
2022/07/29 04:37:45;;;;;;;16.58;13.90;;;;;;;16.85;100.00;96056.00;5031642;28;20037;-75
2022/07/29 04:40:11;;;;;;;11.70;8.63;;;;;;;16.84;100.00;96054.38;5050513;28;20106;-75
2022/07/29 04:42:38;;;;;;;12.02;9.48;;;;;;;16.78;100.00;96055.16;5050083;28;20139;-75
2022/07/29 04:45:04;;;;;;;8.38;6.20;;;;;;;16.81;100.00;96050.28;5024575;28;20383;-75
2022/07/29 04:47:30;;;;;;;8.43;6.05;;;;;;;16.94;100.00;96057.44;5025772;28;20033;-75
2022/07/29 04:49:56;;;;;;;6.70;5.40;;;;;;;16.87;100.00;96056.63;5039739;28;20047;-75
2022/07/29 04:52:22;;;;;;;8.05;6.03;;;;;;;16.66;100.00;96061.03;5051005;28;20068;-76
2022/07/29 04:54:48;;;;;;;10.85;5.95;;;;;;;16.71;100.00;96055.94;5046703;28;20397;-76
2022/07/29 04:57:14;;;;;;;10.25;6.10;;;;;;;16.80;100.00;96058.44;5059260;28;20027;-76
2022/07/29 04:59:39;;;;;;;7.18;5.55;;;;;;;16.69;100.00;96057.16;5012213;28;20715;-77
2022/07/29 05:02:05;;;;;;;9.23;5.80;;;;;;;16.65;100.00;96062.06;5052366;28;20486;-76
2022/07/29 05:04:31;;;;;;;7.95;5.85;;;;;;;16.83;100.00;96068.66;5035806;28;20036;-76
2022/07/29 05:06:56;;;;;;;10.18;6.03;;;;;;;16.87;100.00;96070.72;5025730;28;20457;-76
2022/07/29 05:09:22;;;;;;;7.68;6.18;;;;;;;17.06;100.00;96068.25;5031617;28;20060;-76
2022/07/29 05:11:48;;;;;;;9.13;6.13;;;;;;;16.97;100.00;96065.00;5041115;28;20036;-76
2022/07/29 05:14:13;;;;;;;9.25;6.03;;;;;;;17.05;100.00;96067.44;5015596;28;20052;-75
2022/07/29 05:16:40;;;;;;;9.32;6.55;;;;;;;17.25;100.00;96071.97;5031274;28;20037;-75
2022/07/29 05:19:06;;;;;;;11.07;5.47;;;;;;;17.52;100.00;96064.78;5027238;28;20036;-75
2022/07/29 05:21:31;;;;;;;9.02;6.03;;;;;;;17.56;100.00;96064.16;5033694;28;20033;-75
2022/07/29 05:23:57;;;;;;;10.18;6.20;;;;;;;17.49;100.00;96066.00;5046734;28;20024;-76
2022/07/29 05:26:23;;;;;;;7.13;5.72;;;;;;;17.42;100.00;96067.84;5030984;28;20071;-76
2022/07/29 05:28:48;;;;;;;10.25;6.88;;;;;;;17.27;100.00;96070.75;5051199;28;20046;-76
2022/07/29 05:31:15;;;;;;;9.20;7.38;;;;;;;17.41;100.00;96076.84;5032578;28;20021;-75
2022/07/29 05:33:41;;;;;;;13.77;8.57;;;;;;;17.59;100.00;96069.06;5022503;28;20087;-75
2022/07/29 05:36:07;;;;;;;8.30;6.70;;;;;;;17.71;100.00;96063.13;5051950;28;20107;-75
2022/07/29 05:38:33;;;;;;;9.38;6.93;;;;;;;18.16;100.00;96072.00;5032508;28;20041;-76
2022/07/29 05:40:59;;;;;;;8.85;6.43;;;;;;;18.23;100.00;96069.31;5042263;28;20028;-76
2022/07/29 05:43:26;;;;;;;9.57;5.80;;;;;;;18.21;100.00;96071.34;5044805;28;20074;-76
2022/07/29 05:45:52;;;;;;;7.28;5.43;;;;;;;18.09;100.00;96073.88;5046871;28;20401;-76
2022/07/29 05:48:17;;;;;;;8.13;5.72;;;;;;;18.06;100.00;96080.44;5029526;28;20033;-76
2022/07/29 05:50:43;;;;;;;7.43;5.82;;;;;;;18.00;100.00;96086.59;5033269;28;20036;-76
2022/07/29 05:53:13;;;;;;;11.23;5.40;;;;;;;18.02;100.00;96083.72;5032051;28;20094;-76
2022/07/29 05:55:39;;;;;;;8.05;4.32;;;;;;;17.89;100.00;96076.59;5046396;28;20041;-75
2022/07/29 05:58:05;;;;;;;8.23;4.35;;;;;;;18.38;100.00;96075.19;5017235;28;20459;-75
2022/07/29 06:00:30;;;;;;;6.82;4.90;;;;;;;18.43;100.00;96070.03;5049660;28;20032;-75
2022/07/29 06:02:56;;;;;;;7.18;4.78;;;;;;;18.42;100.00;96068.41;5057934;28;20058;-76
2022/07/29 06:05:22;;;;;;;6.50;4.88;;;;;;;18.06;100.00;96079.63;5042914;28;20108;-75
2022/07/29 06:07:48;;;;;;;6.63;4.43;;;;;;;18.38;100.00;96067.22;5041147;28;20060;-75
2022/07/29 06:10:14;;;;;;;8.15;4.63;;;;;;;18.51;100.00;96077.81;5056426;28;20063;-76
2022/07/29 06:12:40;;;;;;;8.55;4.75;;;;;;;18.55;100.00;96073.69;5046815;28;20029;-76
2022/07/29 06:15:06;;;;;;;6.50;4.25;;;;;;;18.58;100.00;96072.44;5038408;28;20033;-75
2022/07/29 06:17:32;;;;;;;9.80;5.00;;;;;;;18.47;100.00;96084.56;5044517;28;20029;-75
2022/07/29 06:19:58;;;;;;;5.72;4.10;;;;;;;18.47;100.00;96079.22;5051374;28;20036;-75
2022/07/29 06:22:23;;;;;;;5.43;3.75;;;;;;;18.59;100.00;96082.88;5057647;28;20028;-75
2022/07/29 06:24:49;;;;;;;6.55;4.30;;;;;;;18.48;100.00;96083.56;5032734;28;20670;-75
2022/07/29 06:27:16;;;;;;;7.55;4.47;;;;;;;18.55;100.00;96092.31;5011661;28;20886;-75
2022/07/29 06:29:41;;;;;;;7.05;3.90;;;;;;;18.78;100.00;96083.81;5055928;28;20121;-76
2022/07/29 06:32:08;;;;;;;6.45;3.50;;;;;;;18.85;100.00;96086.44;5056164;28;20470;-75
2022/07/29 06:34:35;;;;;;;6.28;3.63;;;;;;;19.31;100.00;96087.94;5028041;28;20111;-75
2022/07/29 06:37:08;;;;;;;7.95;4.07;;;;;;;19.75;100.00;96081.66;5057994;28;21019;-75
2022/07/29 06:39:36;;;;;;;6.15;3.90;;;;;;;20.32;100.00;96081.44;5058572;28;20033;-75
2022/07/29 06:42:03;;;;;;;6.05;3.45;;;;;;;20.40;100.00;96075.78;5046233;28;20025;-75
2022/07/29 06:44:31;;;;;;;6.75;4.07;;;;;;;20.47;100.00;96075.69;5021652;28;20040;-75
2022/07/29 06:46:56;;;;;;;6.93;3.60;;;;;;;20.37;100.00;96081.56;5031398;28;20040;-75
2022/07/29 06:49:24;;;;;;;6.45;3.83;;;;;;;20.26;100.00;96079.66;5038215;28;20029;-75
2022/07/29 06:51:49;;;;;;;6.00;3.65;;;;;;;20.39;100.00;96089.38;5054402;28;20040;-75
2022/07/29 06:54:15;;;;;;;8.80;3.88;;;;;;;20.25;100.00;96086.03;5066688;28;20028;-75
2022/07/29 06:56:42;;;;;;;5.15;3.75;;;;;;;20.36;100.00;96089.81;5057259;28;20098;-75
2022/07/29 06:59:10;;;;;;;8.20;3.40;;;;;;;19.45;100.00;96089.50;5044460;28;20044;-75
2022/07/29 07:01:41;;;;;;;4.97;2.85;;;;;;;19.59;100.00;96094.72;5026177;28;20043;-75
2022/07/29 07:04:08;;;;;;;7.43;3.45;;;;;;;19.58;100.00;96093.88;5049520;28;20483;-75
2022/07/29 07:06:34;;;;;;;5.57;3.15;;;;;;;19.62;100.00;96094.28;5041742;28;20037;-75
2022/07/29 07:09:00;;;;;;;5.28;2.90;;;;;;;19.72;100.00;96098.09;5051896;28;20541;-75
2022/07/29 07:11:26;;;;;;;6.43;3.65;;;;;;;20.09;100.00;96094.66;5046897;28;20017;-75
2022/07/29 07:13:52;;;;;;;6.10;3.00;;;;;;;20.38;100.00;96093.06;5017557;28;20056;-76
2022/07/29 07:16:18;;;;;;;5.72;3.10;;;;;;;20.91;100.00;96095.06;5026195;28;20036;-75
2022/07/29 07:18:44;;;;;;;7.15;3.40;;;;;;;21.28;100.00;96098.41;5047271;28;20033;-76
2022/07/29 07:21:11;;;;;;;5.57;3.17;;;;;;;21.85;100.00;96092.56;5025980;28;20055;-75
2022/07/29 07:23:36;;;;;;;6.32;3.50;;;;;;;22.33;100.00;96088.78;5043112;28;20021;-75
2022/07/29 07:26:02;;;;;;;7.72;3.97;;;;;;;22.57;100.00;96079.63;5023505;28;20025;-75
2022/07/29 07:28:28;;;;;;;6.65;3.72;;;;;;;22.42;100.00;96097.28;5015264;28;20037;-75
2022/07/29 07:30:54;;;;;;;6.13;3.55;;;;;;;22.95;100.00;96088.13;5041099;28;20436;-75
2022/07/29 07:33:20;;;;;;;6.38;3.67;;;;;;;23.82;100.00;96089.56;5036197;28;20079;-75
2022/07/29 07:35:46;;;;;;;5.68;3.10;;;;;;;23.52;100.00;96082.66;5029258;28;20533;-75
2022/07/29 07:38:12;;;;;;;5.82;2.70;;;;;;;23.08;100.00;96087.81;5027264;28;20051;-75
2022/07/29 07:40:38;;;;;;;5.43;2.72;;;;;;;23.67;100.00;96074.81;5027286;28;20041;-75
2022/07/29 07:43:03;;;;;;;5.25;2.97;;;;;;;23.45;100.00;96076.63;5031966;28;20032;-75
2022/07/29 07:45:29;;;;;;;5.38;2.90;;;;;;;23.31;100.00;96078.84;5053613;28;20111;-76
2022/07/29 07:47:55;;;;;;;4.60;2.65;;;;;;;24.40;97.51;96074.75;5027107;28;20126;-75
2022/07/29 07:50:20;;;;;;;4.53;2.50;;;;;;;25.06;95.41;96067.44;5046768;28;20183;-76
2022/07/29 07:52:57;;;;;;;6.63;3.20;;;;;;;24.39;100.00;96073.94;5050652;28;20040;-76
2022/07/29 07:55:25;;;;;;;5.80;3.00;;;;;;;24.38;99.08;96071.50;5048792;28;20397;-76
2022/07/29 07:57:50;;;;;;;6.80;2.92;;;;;;;24.68;96.73;96071.91;5057264;28;20028;-76
2022/07/29 08:00:17;;;;;;;5.97;3.10;;;;;;;24.59;97.21;96073.41;5038510;28;20033;-76
2022/07/29 08:02:42;;;;;;;6.40;3.58;;;;;;;24.85;95.29;96069.13;5062335;28;20001;-76
2022/07/29 08:05:09;;;;;;;4.70;2.80;;;;;;;25.73;90.00;96070.69;5058879;28;20106;-76
2022/07/29 08:07:34;;;;;;;5.10;3.03;;;;;;;25.58;87.63;96077.56;5045006;28;20078;-76
2022/07/29 08:10:00;;;;;;;3.45;2.33;;;;;;;25.50;82.67;96072.66;5069371;28;20393;-76
2022/07/29 08:12:26;;;;;;;3.80;1.92;;;;;;;26.05;74.95;96079.50;5040108;28;20035;-76
2022/07/29 08:14:51;;;;;;;6.03;2.60;;;;;;;25.34;81.69;96076.31;5029507;28;20087;-76
2022/07/29 08:17:17;;;;;;;4.93;2.13;;;;;;;25.00;84.75;96073.81;5020536;28;20131;-75
2022/07/29 08:19:43;;;;;;;3.97;2.33;;;;;;;25.57;79.06;96077.84;5044323;28;20044;-75
2022/07/29 08:22:09;;;;;;;5.20;2.28;;;;;;;26.78;68.28;96082.28;5027654;28;20028;-75
2022/07/29 08:24:44;;;;;;;5.75;2.28;;;;;;;27.87;66.57;96074.03;5021484;28;20564;-76
2022/07/29 08:27:10;;;;;;;6.13;2.55;;;;;;;27.69;65.15;96074.56;5014024;28;20041;-76
2022/07/29 08:29:37;;;;;;;5.28;2.40;;;;;;;26.36;70.29;96077.00;5054870;28;20136;-76
2022/07/29 08:32:03;;;;;;;3.40;1.90;;;;;;;26.21;71.32;96076.91;5053051;28;20032;-75
2022/07/29 08:34:29;;;;;;;4.72;2.20;;;;;;;25.79;78.61;96086.63;5062681;28;20041;-76
2022/07/29 08:36:56;;;;;;;5.38;2.30;;;;;;;25.90;76.92;96087.53;5019364;28;20029;-76
2022/07/29 08:39:23;;;;;;;5.63;2.28;;;;;;;26.06;76.26;96083.84;5045770;28;20025;-76
2022/07/29 08:41:50;;;;;;;8.60;2.72;;;;;;;26.60;70.32;96077.38;5031050;28;20383;-76
2022/07/29 08:44:21;;;;;;;3.55;1.83;;;;;;;26.45;68.90;96078.09;5024331;28;20030;-75
2022/07/29 08:46:48;;;;;;;6.30;2.50;;;;;;;27.17;66.99;96079.16;5027531;28;20040;-75
2022/07/29 08:49:13;;;;;;;4.70;2.83;;;;;;;27.40;67.27;96082.44;5025500;28;20037;-75
2022/07/29 08:51:41;;;;;;;3.75;2.47;;;;;;;27.86;64.12;96079.69;5053301;28;20031;-76
2022/07/29 08:54:08;;;;;;;3.40;2.00;;;;;;;28.00;59.11;96072.63;5057002;28;20086;-76
2022/07/29 08:56:35;;;;;;;5.22;2.60;;;;;;;28.22;63.82;96075.03;5040840;28;20041;-75
2022/07/29 08:59:04;;;;;;;4.30;2.83;;;;;;;28.19;62.03;96073.66;5035547;28;20107;-76
2022/07/29 09:01:33;;;;;;;5.05;2.78;;;;;;;29.17;60.36;96070.53;5054348;28;20120;-75
2022/07/29 09:04:01;;;;;;;3.47;2.28;;;;;;;30.01;54.22;96068.47;5055091;28;20048;-76
2022/07/29 09:06:33;;;;;;;2.65;1.77;;;;;;;29.91;54.07;96061.25;5044758;28;20538;-76
2022/07/29 09:08:59;;;;;;;3.30;2.20;;;;;;;29.05;57.79;96063.59;5059053;28;20127;-76
2022/07/29 09:11:26;;;;;;;5.05;2.03;;;;;;;29.66;52.81;96066.94;5042676;28;20032;-76
2022/07/29 09:13:52;;;;;;;5.28;2.40;;;;;;;29.72;53.42;96065.81;5052995;28;20033;-76
2022/07/29 09:16:18;;;;;;;5.13;2.17;;;;;;;29.51;51.69;96067.84;5047708;28;20033;-75
2022/07/29 09:18:45;;;;;;;4.07;2.58;;;;;;;28.24;54.72;96072.06;5015690;28;20044;-76
2022/07/29 09:24:07;;;;;;;6.03;3.00;;;;;;;28.43;54.98;96065.78;5052103;28;20037;-76
2022/07/29 09:27:00;;;;;;;4.90;2.60;;;;;;;28.33;53.83;96068.47;5058759;28;20375;-76
2022/07/29 09:29:27;;;;;;;4.10;2.47;;;;;;;28.62;57.09;96063.25;5049125;28;20102;-75
2022/07/29 09:31:54;;;;;;;4.10;2.38;;;;;;;28.34;57.67;96072.03;5052863;28;20064;-76
2022/07/29 09:34:25;;;;;;;4.15;2.20;;;;;;;28.84;55.80;96068.31;5066798;28;20062;-76
2022/07/29 09:36:52;;;;;;;3.20;2.50;;;;;;;28.83;57.96;96071.25;5059416;28;20119;-76
2022/07/29 09:39:45;;;;;;;4.15;2.42;;;;;;;28.93;51.91;96070.41;5047879;28;20052;-76
2022/07/29 09:42:11;;;;;;;6.00;3.03;;;;;;;29.61;50.50;96059.66;5023994;28;20030;-76
2022/07/29 09:44:41;;;;;;;5.13;2.95;;;;;;;30.48;48.67;96053.31;5055421;28;20037;-76
2022/07/29 09:47:07;;;;;;;5.10;2.75;;;;;;;30.54;46.72;96055.69;5041997;28;20028;-76
2022/07/29 09:49:34;;;;;;;4.05;2.47;;;;;;;31.19;47.09;96057.00;5031177;28;20058;-76
2022/07/29 09:52:04;;;;;;;5.22;3.05;;;;;;;31.02;47.08;96056.69;5058277;28;20056;-76
2022/07/29 09:54:36;;;;;;;5.65;2.50;;;;;;;30.85;47.38;96060.75;5018292;28;20029;-76
2022/07/29 09:57:12;;;;;;;3.97;2.57;;;;;;;30.96;45.90;96066.84;5059751;28;20059;-75
2022/07/29 09:59:39;;;;;;;3.55;2.60;;;;;;;30.54;48.72;96071.97;5037553;28;20474;-76
2022/07/29 10:02:14;;;;;;;4.03;2.63;;;;;;;30.57;49.49;96070.59;5051439;28;20071;-75
2022/07/29 10:04:41;;;;;;;4.22;2.67;;;;;;;30.38;48.23;96072.44;5047142;28;20029;-77
2022/07/29 10:07:07;;;;;;;5.28;2.75;;;;;;;30.65;47.73;96064.53;5043943;28;20040;-76
2022/07/29 10:09:33;;;;;;;5.00;2.83;;;;;;;30.35;45.06;96073.03;5050720;28;20108;-76
2022/07/29 10:12:10;;;;;;;4.82;3.00;;;;;;;30.39;48.44;96071.38;5063521;28;20033;-76
2022/07/29 10:14:38;;;;;;;4.93;3.00;;;;;;;31.00;45.75;96065.16;5050667;28;20033;-75
2022/07/29 10:17:05;;;;;;;3.08;2.38;;;;;;;30.89;46.92;96071.84;5050055;28;20736;-75
2022/07/29 10:19:33;;;;;;;6.85;3.25;;;;;;;31.08;46.48;96066.41;5033849;28;20062;-76
2022/07/29 10:22:00;;;;;;;5.10;3.03;;;;;;;31.97;44.36;96060.91;5054353;28;20056;-76
2022/07/29 10:24:27;;;;;;;6.07;3.28;;;;;;;31.24;46.60;96060.44;5063101;28;20020;-76
2022/07/29 10:26:59;;;;;;;5.13;2.85;;;;;;;32.03;43.88;96056.19;5052023;28;20047;-75
2022/07/29 10:29:25;;;;;;;4.00;2.83;;;;;;;31.93;43.84;96051.75;5066899;28;20025;-76
2022/07/29 10:32:27;;;;;;;4.30;3.03;;;;;;;32.09;42.64;96044.91;5071772;28;20131;-75
2022/07/29 10:35:15;;;;;;;5.88;3.35;;;;;;;31.84;44.15;96042.63;5035450;28;20044;-77
2022/07/29 10:38:20;;;;;;;6.70;4.00;;;;;;;32.02;45.16;96049.13;5051169;28;20041;-76
2022/07/29 10:43:45;;;;;;;5.38;3.42;;;;;;;32.10;43.05;96041.06;5065578;28;20028;-76
2022/07/29 10:46:12;;;;;;;5.60;3.30;;;;;;;31.32;44.74;96042.72;5040363;28;20062;-76
2022/07/29 10:49:07;;;;;;;5.25;3.25;;;;;;;31.34;45.25;96040.47;5057022;28;20041;-76
2022/07/29 10:51:52;;;;;;;6.57;3.20;;;;;;;30.27;48.47;96033.78;5049409;28;20086;-76
2022/07/29 10:54:19;;;;;;;4.03;2.90;;;;;;;30.22;49.42;96036.56;5051938;28;20033;-76
2022/07/29 10:56:45;;;;;;;6.20;2.80;;;;;;;30.28;49.55;96033.50;5032597;28;20027;-76
2022/07/29 10:59:20;;;;;;;5.10;3.08;;;;;;;30.67;45.05;96027.03;5056195;28;20028;-76
2022/07/29 11:01:47;;;;;;;5.20;3.10;;;;;;;30.79;45.13;96023.91;5052751;28;20118;-76
2022/07/29 11:04:12;;;;;;;4.72;3.13;;;;;;;31.82;41.85;96017.63;5046846;28;20080;-76
2022/07/29 11:06:57;;;;;;;6.03;3.10;;;;;;;32.99;40.12;96014.47;5018454;28;20493;-75
2022/07/29 11:09:22;;;;;;;7.13;3.58;;;;;;;33.04;39.75;96008.91;5048037;28;20033;-75
2022/07/29 11:11:48;;;;;;;6.15;4.32;;;;;;;32.20;38.67;96014.78;5049717;28;20051;-75
2022/07/29 11:14:15;;;;;;;7.30;3.63;;;;;;;31.65;40.74;96018.22;5032369;28;20036;-74
2022/07/29 11:17:00;;;;;;;7.28;3.22;;;;;;;32.12;42.63;96019.00;5030369;28;20059;-75
2022/07/29 11:19:25;;;;;;;6.97;3.47;;;;;;;31.57;41.60;96022.44;5055303;28;20111;-75
2022/07/29 11:21:52;;;;;;;5.38;2.85;;;;;;;31.89;43.22;96018.06;5050442;28;20041;-75
2022/07/29 11:24:20;;;;;;;4.95;2.78;;;;;;;31.84;44.71;96020.88;5053677;28;20016;-75
2022/07/29 11:27:06;;;;;;;7.28;3.13;;;;;;;31.22;44.16;96016.47;5056986;28;20553;-76
2022/07/29 11:29:34;;;;;;;5.40;3.10;;;;;;;30.55;45.91;96021.25;5049493;28;20405;-76
2022/07/29 11:32:20;;;;;;;6.13;3.28;;;;;;;30.56;46.66;96030.19;5052824;28;20025;-75
2022/07/29 11:34:48;;;;;;;7.60;3.90;;;;;;;30.74;46.75;96032.91;5046635;28;20490;-78
2022/07/29 11:37:15;;;;;;;5.63;4.13;;;;;;;29.63;46.04;96033.09;5052552;28;20036;-78
2022/07/29 11:39:56;;;;;;;6.75;3.40;;;;;;;30.16;46.11;96026.84;5041879;28;20040;-78
2022/07/29 11:42:24;;;;;;;6.63;3.75;;;;;;;29.93;46.05;96034.69;5045465;28;20091;-76
2022/07/29 11:44:57;;;;;;;8.20;4.47;;;;;;;29.40;47.17;96031.09;5051075;28;20033;-75